Time;durP1;ratioP1;P1;durP2;ratioP2;P2;SDS_P1;SDS_P2;PMS_P1;PMS_P2;Temp;Humidity;BMP_temperature;BMP_pressure;BME280_temperature;BME280_humidity;BME280_pressure;Samples;Min_cycle;Max_cycle;Signal;HPM_P1;HPM_P2
2022/01/24 00:00:09;;;;;;;11.50;7.18;;;;;;;2.92;74.13;101240.28;343483;28;1097;-66
2022/01/24 00:00:23;;;;;;;11.63;7.43;;;;;;;2.96;73.88;101242.09;343519;28;1176;-66
2022/01/24 00:00:35;;;;;;;10.45;7.35;;;;;;;2.98;74.07;101241.28;343399;28;1047;-66
2022/01/24 00:00:47;;;;;;;9.90;6.82;;;;;;;2.99;74.00;101247.28;343635;28;1253;-66
2022/01/24 00:01:03;;;;;;;11.30;6.35;;;;;;;2.98;73.77;101241.28;343460;28;1066;-66
2022/01/24 00:01:15;;;;;;;12.35;6.57;;;;;;;3.01;74.24;101248.19;343550;28;1186;-66
2022/01/24 00:01:27;;;;;;;11.27;6.65;;;;;;;3.03;73.76;101243.97;342782;28;1251;-66
2022/01/24 00:01:46;;;;;;;10.82;6.70;;;;;;;3.04;74.02;101245.72;342032;28;1047;-66
2022/01/24 00:02:02;;;;;;;10.27;7.07;;;;;;;3.06;73.98;101244.06;342131;28;1025;-66
2022/01/24 00:02:14;;;;;;;11.07;7.63;;;;;;;3.09;73.41;101241.53;342188;28;1044;-66
2022/01/24 00:02:28;;;;;;;10.85;7.32;;;;;;;3.08;73.70;101242.38;341933;28;1118;-66
2022/01/24 00:02:42;;;;;;;10.15;6.57;;;;;;;3.10;73.49;101243.28;342086;28;1092;-66
2022/01/24 00:02:55;;;;;;;10.60;6.64;;;;;;;3.09;73.94;101240.69;342105;28;1043;-66
2022/01/24 00:03:07;;;;;;;10.15;6.80;;;;;;;3.05;72.97;101242.28;342173;28;1020;-66
2022/01/24 00:03:19;;;;;;;9.80;7.05;;;;;;;2.97;73.16;101244.69;341923;28;1031;-66
2022/01/24 00:03:31;;;;;;;11.15;7.30;;;;;;;2.96;73.42;101236.97;341983;28;1032;-66
2022/01/24 00:03:43;;;;;;;11.60;7.80;;;;;;;2.97;73.89;101238.69;342628;28;1290;-66
2022/01/24 00:03:58;;;;;;;11.35;7.70;;;;;;;2.99;73.76;101237.00;342455;28;1092;-66
2022/01/24 00:04:11;;;;;;;10.65;7.03;;;;;;;2.98;73.85;101240.44;342401;28;1009;-66
2022/01/24 00:04:24;;;;;;;10.57;6.97;;;;;;;3.00;73.65;101243.91;342276;28;1039;-66
2022/01/24 00:04:39;;;;;;;11.00;7.20;;;;;;;2.96;73.23;101239.53;341997;28;1152;-66
2022/01/24 00:04:51;;;;;;;10.38;7.35;;;;;;;2.97;73.33;101243.81;342438;28;1048;-66
2022/01/24 00:05:04;;;;;;;10.18;7.40;;;;;;;2.96;73.82;101242.09;342537;28;1288;-66
2022/01/24 00:05:19;;;;;;;11.30;8.10;;;;;;;3.01;73.42;101240.50;342443;28;1252;-66
2022/01/24 00:05:30;;;;;;;11.10;7.97;;;;;;;3.04;73.29;101240.56;342612;28;1082;-66
2022/01/24 00:05:43;;;;;;;10.32;7.43;;;;;;;3.02;73.48;101239.66;342507;28;1341;-66
2022/01/24 00:05:55;;;;;;;11.40;7.18;;;;;;;3.03;73.54;101236.25;342553;28;1018;-66
2022/01/24 00:06:10;;;;;;;11.68;7.10;;;;;;;3.05;73.95;101238.88;342463;28;1199;-66
2022/01/24 00:06:24;;;;;;;11.40;7.10;;;;;;;3.07;74.13;101238.06;342561;28;1039;-66
2022/01/24 00:06:37;;;;;;;11.40;7.20;;;;;;;3.05;74.31;101242.28;342360;28;1081;-66
2022/01/24 00:06:50;;;;;;;11.90;7.22;;;;;;;3.07;73.68;101238.06;342398;28;1055;-66
2022/01/24 00:07:02;;;;;;;12.18;7.28;;;;;;;3.09;74.03;101238.97;343650;28;1190;-66
2022/01/24 00:07:18;;;;;;;10.95;7.40;;;;;;;3.06;73.79;101241.47;343552;28;1318;-66
2022/01/24 00:07:32;;;;;;;11.38;7.38;;;;;;;3.07;74.05;101240.63;341241;28;1030;-66
2022/01/24 00:07:44;;;;;;;11.40;7.00;;;;;;;3.08;73.94;101237.25;342093;28;1035;-66
2022/01/24 00:07:56;;;;;;;11.00;7.03;;;;;;;3.08;73.67;101241.50;342153;28;1044;-66
2022/01/24 00:08:08;;;;;;;11.25;7.68;;;;;;;3.10;73.56;101240.72;342127;28;1032;-66
2022/01/24 00:08:21;;;;;;;11.25;7.88;;;;;;;3.09;73.33;101236.41;342092;28;1048;-66
2022/01/24 00:08:33;;;;;;;12.27;7.68;;;;;;;3.11;73.31;101242.44;342137;28;1206;-66
2022/01/24 00:08:45;;;;;;;11.68;7.07;;;;;;;3.10;73.23;101238.16;342125;28;1220;-66
2022/01/24 00:08:59;;;;;;;9.80;6.53;;;;;;;3.12;73.17;101239.06;342188;28;1217;-66
2022/01/24 00:09:12;;;;;;;9.82;6.60;;;;;;;3.13;73.39;101237.34;342208;28;1068;-66
2022/01/24 00:09:24;;;;;;;9.65;6.53;;;;;;;3.13;73.64;101233.06;342111;28;1149;-66
2022/01/24 00:09:40;;;;;;;9.88;6.88;;;;;;;3.15;73.44;101239.09;342050;28;1035;-66
2022/01/24 00:09:55;;;;;;;10.40;7.47;;;;;;;3.22;73.49;101239.25;342421;28;1309;-66
2022/01/24 00:10:12;;;;;;;10.80;7.25;;;;;;;3.13;73.69;101238.19;342403;28;1060;-66
2022/01/24 00:10:26;;;;;;;11.20;6.75;;;;;;;3.08;73.15;101238.91;342421;28;1215;-66
2022/01/24 00:10:40;;;;;;;11.45;6.97;;;;;;;3.07;73.11;101230.34;342385;28;1102;-66
2022/01/24 00:10:53;;;;;;;11.40;7.45;;;;;;;3.04;73.09;101237.13;342385;28;1034;-66
2022/01/24 00:11:13;;;;;;;10.73;7.57;;;;;;;3.00;72.85;101233.63;342404;28;1007;-66
2022/01/24 00:11:37;;;;;;;10.05;7.55;;;;;;;3.01;72.69;101235.34;342412;28;1151;-66
2022/01/24 00:12:03;;;;;;;10.43;7.28;;;;;;;3.03;73.01;101236.25;343282;28;1046;-66
2022/01/24 00:12:25;;;;;;;10.38;7.22;;;;;;;3.02;73.05;101241.34;343585;28;1234;-66
2022/01/24 00:13:16;;;;;;;11.60;7.45;;;;;;;3.00;73.28;101233.63;343474;28;1023;-66
2022/01/24 00:14:14;;;;;;;10.80;7.38;;;;;;;2.98;72.87;101235.28;343401;28;1026;-66
2022/01/24 00:15:23;;;;;;;9.98;7.00;;;;;;;2.98;72.77;101233.59;343752;28;1329;-66
2022/01/24 00:15:55;;;;;;;10.68;7.53;;;;;;;2.96;73.47;101231.81;342240;28;1299;-66
2022/01/24 00:17:29;;;;;;;10.35;7.35;;;;;;;2.89;73.22;101229.94;342011;28;1085;-66
2022/01/24 00:17:42;;;;;;;12.20;7.53;;;;;;;2.92;73.56;101235.16;342241;28;1237;-66
2022/01/24 00:18:12;;;;;;;11.07;7.47;;;;;;;2.90;73.50;101232.53;342119;28;1242;-66
2022/01/24 00:26:47;;;;;;;10.73;7.40;;;;;;;2.89;74.22;101232.50;341936;28;1227;-66
2022/01/24 00:26:59;;;;;;;11.35;8.23;;;;;;;2.89;74.09;101232.50;341924;28;1063;-66
2022/01/24 00:27:12;;;;;;;11.05;8.00;;;;;;;2.91;73.97;101238.53;342318;28;1053;-66
2022/01/24 00:27:25;;;;;;;10.88;7.68;;;;;;;2.90;73.86;101226.53;342141;28;1301;-66
2022/01/24 00:27:37;;;;;;;10.50;7.47;;;;;;;2.89;74.08;101229.94;342118;28;1047;-66
2022/01/24 00:27:49;;;;;;;11.02;7.30;;;;;;;2.91;73.97;101228.25;342318;28;1077;-66
2022/01/24 00:28:01;;;;;;;12.23;7.57;;;;;;;2.90;73.94;101231.69;341976;28;1028;-66
2022/01/24 00:28:13;;;;;;;12.05;7.30;;;;;;;2.92;73.71;101228.31;342176;28;1067;-66
2022/01/24 00:28:25;;;;;;;10.82;6.88;;;;;;;2.95;74.01;101230.06;342112;28;1138;-66
2022/01/24 00:28:37;;;;;;;11.02;7.38;;;;;;;2.96;74.15;101236.97;342153;28;1027;-66
2022/01/24 00:28:49;;;;;;;11.73;7.85;;;;;;;2.97;73.90;101231.84;342135;28;1011;-66
2022/01/24 00:29:02;;;;;;;11.80;7.70;;;;;;;2.99;74.14;101234.44;342242;28;1220;-66
2022/01/24 00:29:20;;;;;;;11.02;7.50;;;;;;;2.99;74.33;101234.44;342397;28;1067;-66
2022/01/24 00:29:32;;;;;;;11.48;7.80;;;;;;;2.97;74.30;101228.41;342339;28;1011;-66
2022/01/24 00:29:45;;;;;;;11.65;7.80;;;;;;;2.98;74.01;101232.72;342251;28;1697;-66
2022/01/24 00:29:57;;;;;;;11.15;7.65;;;;;;;2.97;74.15;101233.53;342176;28;1075;-66
2022/01/24 00:30:09;;;;;;;10.93;7.82;;;;;;;2.99;73.59;101231.88;342226;28;1176;-66
2022/01/24 00:30:22;;;;;;;10.95;7.68;;;;;;;3.01;73.97;101232.78;342453;28;1259;-66
2022/01/24 00:30:34;;;;;;;11.60;7.82;;;;;;;3.03;73.73;101227.69;342246;28;1043;-66
2022/01/24 00:30:52;;;;;;;11.20;7.63;;;;;;;2.99;74.29;101231.88;342342;28;1190;-65
2022/01/24 00:31:05;;;;;;;9.80;7.03;;;;;;;2.93;74.05;101232.59;342335;28;1016;-66
2022/01/24 00:31:17;;;;;;;10.15;7.20;;;;;;;2.94;74.41;101233.50;342440;28;1011;-66
2022/01/24 00:31:29;;;;;;;10.75;7.78;;;;;;;2.94;74.59;101236.06;342408;28;1181;-66
2022/01/24 00:31:41;;;;;;;10.98;8.35;;;;;;;2.97;74.14;101230.97;342342;28;1046;-66
2022/01/24 00:31:54;;;;;;;10.88;8.05;;;;;;;2.98;74.21;101235.28;342420;28;1612;-66
2022/01/24 00:32:07;;;;;;;10.40;7.18;;;;;;;2.96;74.09;101231.81;342157;28;1062;-66
2022/01/24 00:32:18;;;;;;;9.80;6.88;;;;;;;2.97;73.88;101230.97;342338;28;1015;-66
2022/01/24 00:32:30;;;;;;;10.55;7.35;;;;;;;2.95;74.10;101227.50;342431;28;1144;-66
2022/01/24 00:32:42;;;;;;;11.90;7.90;;;;;;;2.98;74.12;101230.16;342425;28;1043;-66
2022/01/24 00:32:54;;;;;;;12.68;8.40;;;;;;;2.97;74.25;101233.53;342142;28;1087;-66
2022/01/24 00:33:07;;;;;;;12.52;8.43;;;;;;;2.96;74.33;101234.38;342326;28;1115;-66
2022/01/24 00:33:19;;;;;;;11.32;7.85;;;;;;;2.93;74.36;101229.16;342313;28;1079;-66
2022/01/24 00:33:31;;;;;;;11.63;7.50;;;;;;;2.95;74.10;101230.06;342275;28;1027;-66
2022/01/24 00:33:43;;;;;;;11.35;7.70;;;;;;;2.94;74.48;101228.34;342225;28;1279;-66
2022/01/24 00:33:55;;;;;;;11.65;8.00;;;;;;;2.99;74.06;101231.88;342121;28;1283;-66
2022/01/24 00:34:07;;;;;;;11.52;7.97;;;;;;;3.00;74.08;101233.63;342280;28;1063;-66
2022/01/24 00:34:20;;;;;;;11.90;8.07;;;;;;;3.00;74.48;101229.34;341979;28;1348;-66
2022/01/24 00:34:32;;;;;;;12.00;8.10;;;;;;;3.03;74.08;101233.69;340915;29;1024;-66
2022/01/24 00:34:44;;;;;;;12.23;7.93;;;;;;;3.04;74.35;101235.44;340769;29;1101;-66
2022/01/24 00:34:56;;;;;;;11.60;7.63;;;;;;;3.05;74.32;101226.03;341162;28;1201;-66
2022/01/24 00:35:10;;;;;;;12.15;7.72;;;;;;;3.08;74.39;101226.97;342322;28;1073;-66
2022/01/24 00:35:22;;;;;;;12.05;8.18;;;;;;;3.10;74.16;101230.44;342260;28;1145;-66
2022/01/24 00:35:34;;;;;;;11.48;8.02;;;;;;;3.11;74.04;101221.88;342269;28;1167;-66
2022/01/24 00:35:47;;;;;;;11.23;7.75;;;;;;;3.10;74.01;101234.69;342203;28;1341;-66
2022/01/24 00:35:59;;;;;;;11.60;7.47;;;;;;;3.10;73.78;101225.31;342039;28;1473;-66
2022/01/24 00:36:11;;;;;;;11.55;7.45;;;;;;;3.10;73.51;101229.53;342286;28;1261;-66
2022/01/24 00:36:23;;;;;;;11.57;7.63;;;;;;;3.11;73.64;101227.03;342131;28;1263;-66
2022/01/24 00:36:35;;;;;;;11.57;7.88;;;;;;;3.10;73.92;101230.44;342273;28;1027;-66
2022/01/24 00:36:48;;;;;;;11.63;7.93;;;;;;;3.13;73.72;101224.50;342387;28;1031;-65
2022/01/24 00:37:00;;;;;;;11.32;7.75;;;;;;;3.16;73.63;101228.00;342073;28;1148;-66
2022/01/24 00:37:13;;;;;;;9.68;6.85;;;;;;;3.15;73.80;101228.84;342425;28;1123;-66
2022/01/24 00:37:29;;;;;;;10.20;6.88;;;;;;;3.17;73.88;101228.88;342376;28;1051;-66
2022/01/24 00:37:41;;;;;;;11.35;7.43;;;;;;;3.16;73.20;101230.59;342398;28;1161;-66
2022/01/24 00:37:59;;;;;;;11.30;7.65;;;;;;;3.16;73.62;101229.72;342386;28;1095;-66
2022/01/24 00:38:11;;;;;;;10.98;7.88;;;;;;;3.15;73.24;101235.69;342381;28;1023;-66
2022/01/24 00:38:23;;;;;;;11.50;8.02;;;;;;;3.15;72.66;101228.84;342314;28;1290;-66
2022/01/24 00:38:35;;;;;;;11.68;7.90;;;;;;;3.13;72.53;101227.94;342280;28;1063;-65
2022/01/24 00:38:47;;;;;;;11.27;7.47;;;;;;;3.11;72.41;101227.03;342330;28;1071;-66
2022/01/24 00:39:02;;;;;;;11.15;7.40;;;;;;;3.11;72.81;101234.72;342427;28;1046;-66
2022/01/24 00:39:15;;;;;;;11.07;7.53;;;;;;;3.07;73.18;101225.22;342382;28;1007;-66
2022/01/24 00:39:28;;;;;;;11.40;7.82;;;;;;;3.09;73.27;101233.81;342436;28;1102;-66
2022/01/24 00:39:40;;;;;;;10.55;7.40;;;;;;;3.12;72.91;101231.34;342443;28;1071;-65
2022/01/24 00:39:52;;;;;;;10.27;7.57;;;;;;;3.08;72.54;101234.69;342448;28;1074;-66
2022/01/24 00:40:05;;;;;;;11.52;7.75;;;;;;;3.08;72.16;101232.09;342358;28;1992;-65
2022/01/24 00:40:17;;;;;;;12.02;8.00;;;;;;;3.09;72.18;101225.25;342432;28;1140;-66
2022/01/24 00:40:35;;;;;;;11.50;7.80;;;;;;;3.10;72.10;101240.72;342283;28;1047;-66
2022/01/24 00:40:49;;;;;;;12.68;7.90;;;;;;;3.11;72.34;101237.31;342236;28;1421;-66
2022/01/24 00:41:01;;;;;;;12.88;8.02;;;;;;;3.07;72.62;101230.34;342228;28;1149;-65
2022/01/24 00:41:16;;;;;;;10.98;7.68;;;;;;;3.07;72.66;101230.34;342491;28;1444;-66
2022/01/24 00:41:38;;;;;;;10.88;7.35;;;;;;;3.07;73.19;101230.34;343935;28;1269;-65
2022/01/24 00:42:54;;;;;;;10.10;7.40;;;;;;;3.04;73.23;101234.53;344634;28;1378;-66
2022/01/24 00:43:01;;;;;;;10.60;7.78;;;;;;;3.07;73.04;101234.63;343571;28;1158;-65
2022/01/24 00:43:45;;;;;;;10.55;7.90;;;;;;;3.06;72.99;101235.44;343786;28;1200;-66
2022/01/24 00:44:32;;;;;;;10.82;7.43;;;;;;;3.08;73.44;101237.25;343693;28;1039;-66
2022/01/24 00:45:11;;;;;;;11.48;7.70;;;;;;;3.01;73.32;101237.91;343703;28;1184;-66
2022/01/24 00:45:37;;;;;;;12.20;8.25;;;;;;;2.99;73.69;101231.88;343853;28;1024;-66
2022/01/24 00:45:59;;;;;;;11.73;7.65;;;;;;;2.87;74.05;101236.72;343508;28;1536;-65
2022/01/24 00:46:28;;;;;;;12.00;7.57;;;;;;;2.89;74.13;101246.19;343662;28;1147;-65
2022/01/24 00:46:51;;;;;;;12.52;8.20;;;;;;;2.91;73.69;101236.81;343622;28;1165;-66
2022/01/24 00:47:14;;;;;;;12.93;7.85;;;;;;;2.94;74.01;101244.63;343662;28;1054;-65
2022/01/24 00:47:27;;;;;;;11.15;8.23;;;;;;;2.94;73.67;101243.75;343667;28;1273;-66
2022/01/24 00:49:10;;;;;;;12.18;7.53;;;;;;;2.84;73.19;101241.78;343616;28;1038;-65
2022/01/24 00:54:43;;;;;;;11.70;7.80;;;;;;;2.80;74.39;101246.00;343526;28;1043;-66
2022/01/24 00:54:55;;;;;;;11.32;7.88;;;;;;;2.83;74.37;101245.19;343686;28;1075;-66
2022/01/24 00:55:08;;;;;;;10.57;7.90;;;;;;;2.82;73.92;101234.06;343578;28;1239;-66
2022/01/24 00:55:20;;;;;;;10.65;8.00;;;;;;;2.81;73.90;101237.44;343701;28;1055;-65
2022/01/24 00:55:32;;;;;;;11.38;7.75;;;;;;;2.82;74.05;101240.88;343487;28;1200;-65
2022/01/24 00:55:48;;;;;;;11.38;7.60;;;;;;;2.78;74.07;101240.81;343540;28;1421;-66
2022/01/24 00:56:00;;;;;;;11.20;7.78;;;;;;;2.80;74.34;101246.00;343598;28;1051;-66
2022/01/24 00:56:12;;;;;;;11.32;7.90;;;;;;;2.83;73.91;101242.63;343327;28;1261;-66
2022/01/24 00:56:24;;;;;;;10.77;8.00;;;;;;;2.83;73.95;101245.19;343145;28;1164;-66
2022/01/24 00:56:36;;;;;;;10.75;7.60;;;;;;;2.83;73.90;101240.91;343623;28;1067;-65
2022/01/24 00:56:49;;;;;;;10.98;7.63;;;;;;;2.85;74.08;101243.53;343581;28;1075;-66
2022/01/24 00:57:01;;;;;;;11.26;8.10;;;;;;;2.85;74.12;101244.38;343598;28;1247;-66
2022/01/24 00:57:14;;;;;;;10.10;7.75;;;;;;;2.87;74.22;101241.84;343405;28;1302;-66
2022/01/24 00:57:26;;;;;;;9.77;7.22;;;;;;;2.88;73.95;101244.47;343542;28;1183;-66
2022/01/24 00:57:38;;;;;;;11.32;7.70;;;;;;;2.86;74.08;101242.69;343585;28;1210;-65
2022/01/24 00:57:51;;;;;;;11.85;7.93;;;;;;;2.86;73.68;101234.97;343767;28;1122;-65
2022/01/24 00:58:02;;;;;;;11.02;7.95;;;;;;;2.91;73.72;101238.53;343678;28;1175;-66
2022/01/24 00:58:15;;;;;;;11.23;8.13;;;;;;;2.91;73.99;101244.53;343708;28;1111;-66
2022/01/24 00:58:27;;;;;;;11.13;7.85;;;;;;;2.91;73.91;101238.53;344848;28;1071;-65
2022/01/24 00:58:40;;;;;;;11.18;7.68;;;;;;;2.90;74.42;101242.81;344802;28;1261;-66
2022/01/24 00:58:52;;;;;;;10.45;7.10;;;;;;;2.89;74.05;101250.47;344948;28;1035;-66
2022/01/24 00:59:05;;;;;;;10.10;6.82;;;;;;;2.88;74.35;101238.44;344745;28;1091;-65
2022/01/24 00:59:17;;;;;;;10.52;7.22;;;;;;;2.85;73.78;101238.38;344806;28;1027;-65
2022/01/24 00:59:29;;;;;;;9.95;7.30;;;;;;;2.80;74.05;101240.84;344800;28;1022;-65
2022/01/24 00:59:41;;;;;;;11.32;7.75;;;;;;;2.75;74.83;101243.28;344760;28;1023;-65
2022/01/24 00:59:53;;;;;;;12.95;8.13;;;;;;;2.74;74.20;101240.69;344946;28;1014;-65
2022/01/24 01:00:06;;;;;;;12.30;7.80;;;;;;;2.69;75.11;101235.44;344792;28;1196;-66
2022/01/24 01:00:18;;;;;;;12.15;7.70;;;;;;;2.70;75.40;101238.91;344777;28;1297;-65
2022/01/24 01:00:30;;;;;;;11.23;8.00;;;;;;;2.72;75.14;101243.22;344201;28;1063;-65
2022/01/24 01:00:42;;;;;;;10.73;8.25;;;;;;;2.75;75.27;101243.28;343746;28;1095;-65
2022/01/24 01:00:55;;;;;;;9.93;7.65;;;;;;;2.72;75.32;101238.09;343832;28;1339;-65
2022/01/24 01:01:07;;;;;;;11.48;7.40;;;;;;;2.73;75.40;101239.81;343704;28;1128;-65
2022/01/24 01:01:20;;;;;;;12.95;7.82;;;;;;;2.71;75.36;101241.47;343665;28;1906;-65
2022/01/24 01:01:32;;;;;;;12.43;8.15;;;;;;;2.73;75.01;101239.81;342579;28;1065;-65
2022/01/24 01:01:44;;;;;;;12.38;8.40;;;;;;;2.77;75.10;101244.19;342208;28;1068;-65
2022/01/24 01:01:56;;;;;;;11.05;8.18;;;;;;;2.80;74.56;101246.84;342422;28;1322;-65
2022/01/24 01:02:08;;;;;;;11.20;8.50;;;;;;;2.84;74.99;101236.63;342371;28;1083;-66
2022/01/24 01:02:20;;;;;;;11.13;8.00;;;;;;;2.82;74.52;101238.28;342057;28;1247;-65
2022/01/24 01:02:38;;;;;;;10.55;7.50;;;;;;;2.84;74.74;101241.78;342099;28;1091;-65
2022/01/24 01:02:50;;;;;;;9.70;7.40;;;;;;;2.86;74.83;101240.09;342270;28;1051;-65
2022/01/24 01:03:03;;;;;;;10.50;7.60;;;;;;;2.83;74.12;101240.91;342261;28;1204;-65
2022/01/24 01:03:16;;;;;;;10.95;7.45;;;;;;;2.85;74.57;101243.53;342184;28;1023;-65
2022/01/24 01:03:29;;;;;;;10.38;7.55;;;;;;;2.88;74.64;101241.91;342228;28;1087;-66
2022/01/24 01:03:41;;;;;;;11.27;7.60;;;;;;;2.82;74.27;101235.72;342198;28;1038;-65
2022/01/24 01:03:53;;;;;;;11.23;7.30;;;;;;;2.84;74.03;101241.78;342306;28;1064;-66
2022/01/24 01:04:05;;;;;;;11.30;7.20;;;;;;;2.85;74.20;101243.53;342110;28;1088;-66
2022/01/24 01:04:19;;;;;;;11.02;7.20;;;;;;;2.80;74.04;101241.72;342133;28;1046;-65
2022/01/24 01:04:52;;;;;;;11.93;7.40;;;;;;;2.79;74.42;101239.97;342173;28;1203;-65
2022/01/24 01:05:33;;;;;;;11.43;8.30;;;;;;;2.77;74.14;101240.75;342124;28;1013;-66
2022/01/24 01:06:13;;;;;;;11.43;7.65;;;;;;;2.70;74.74;101242.31;342374;28;1328;-65
2022/01/24 01:06:25;;;;;;;11.50;7.82;;;;;;;2.66;75.01;101237.94;342204;28;1011;-66
2022/01/24 01:06:41;;;;;;;11.65;8.02;;;;;;;2.67;75.30;101243.94;342189;28;1141;-66
2022/01/24 01:06:54;;;;;;;12.13;8.30;;;;;;;2.71;75.04;101241.47;341955;28;927;-65
2022/01/24 01:07:07;;;;;;;11.55;8.20;;;;;;;2.73;74.65;101238.94;342321;28;1281;-65
2022/01/24 01:18:07;;;;;;;11.68;7.88;;;;;;;2.70;74.92;101239.75;339495;29;1272;-66
2022/01/24 01:18:14;;;;;;;10.60;6.93;;;;;;;2.29;76.93;101247.22;343591;28;1260;-66
2022/01/24 01:18:26;;;;;;;11.10;7.53;;;;;;;2.29;77.01;101242.09;343863;28;1222;-66
2022/01/24 01:18:43;;;;;;;11.90;7.68;;;;;;;2.30;76.87;101238.72;343769;28;1080;-66
2022/01/24 01:18:59;;;;;;;12.60;8.10;;;;;;;2.36;76.17;101246.56;343690;28;1234;-66
2022/01/24 01:19:11;;;;;;;11.43;7.78;;;;;;;2.37;76.12;101245.75;343480;28;1173;-65
2022/01/24 01:19:23;;;;;;;10.35;7.25;;;;;;;2.39;76.21;101243.22;343824;28;1172;-65
2022/01/24 01:19:35;;;;;;;9.35;6.55;;;;;;;2.42;75.89;101245.00;343638;28;1176;-66
2022/01/24 01:19:47;;;;;;;9.73;6.70;;;;;;;2.37;76.63;101248.34;343633;28;1086;-66
2022/01/24 01:19:59;;;;;;;9.75;6.90;;;;;;;2.35;77.31;101241.41;343465;28;1019;-65
2022/01/24 01:20:16;;;;;;;10.82;7.20;;;;;;;2.34;76.92;101240.53;343728;28;1628;-65
2022/01/24 01:20:33;;;;;;;11.52;7.30;;;;;;;2.28;77.09;101240.38;343852;28;1218;-66
2022/01/24 01:21:21;;;;;;;10.48;7.25;;;;;;;2.32;77.58;101244.75;343691;28;1231;-66
2022/01/24 01:21:33;;;;;;;11.13;7.32;;;;;;;2.32;77.04;101241.34;343772;28;1114;-65
2022/01/24 01:21:45;;;;;;;11.02;7.20;;;;;;;2.35;76.46;101236.25;343889;28;1095;-65
2022/01/24 01:21:57;;;;;;;10.98;6.97;;;;;;;2.37;76.75;101239.75;343738;28;1078;-66
2022/01/24 01:22:09;;;;;;;11.75;7.53;;;;;;;2.39;76.95;101238.09;343562;28;1094;-66
2022/01/24 01:22:21;;;;;;;12.15;7.97;;;;;;;2.40;76.52;101240.69;343681;28;1906;-66
2022/01/24 01:22:33;;;;;;;10.65;7.60;;;;;;;2.40;76.16;101240.69;343543;28;1062;-65
2022/01/24 01:22:46;;;;;;;10.23;7.38;;;;;;;2.40;75.67;101245.84;343824;28;1091;-66
2022/01/24 01:23:00;;;;;;;10.40;7.47;;;;;;;2.39;75.50;101238.97;344951;28;1002;-65
2022/01/24 01:23:13;;;;;;;10.05;7.07;;;;;;;2.40;75.59;101245.84;343652;28;1122;-65
2022/01/24 01:23:25;;;;;;;9.85;6.93;;;;;;;2.44;75.78;101243.34;343502;28;1087;-65
2022/01/24 01:23:45;;;;;;;10.05;7.05;;;;;;;2.48;75.59;101242.59;343499;28;1085;-66
2022/01/24 01:24:05;;;;;;;10.10;7.07;;;;;;;2.52;75.77;101237.59;343125;28;1057;-66
2022/01/24 01:24:22;;;;;;;9.93;6.63;;;;;;;2.52;75.77;101234.16;343321;28;1287;-66
2022/01/24 01:24:39;;;;;;;10.98;7.25;;;;;;;2.55;75.79;101241.91;343218;28;1049;-65
2022/01/24 01:24:54;;;;;;;9.88;6.82;;;;;;;2.53;75.25;101247.00;343397;28;1067;-66
2022/01/24 01:25:06;;;;;;;9.38;6.53;;;;;;;2.56;75.60;101231.69;343575;28;1091;-65
2022/01/24 01:25:18;;;;;;;9.38;6.80;;;;;;;2.49;75.08;101242.63;343696;28;1159;-66
2022/01/24 01:25:31;;;;;;;9.27;6.88;;;;;;;2.48;75.36;101242.59;343960;28;1267;-65
2022/01/24 01:25:44;;;;;;;9.65;6.82;;;;;;;2.47;75.29;101238.28;343858;28;1344;-65
2022/01/24 01:26:00;;;;;;;10.52;7.05;;;;;;;2.47;75.09;101238.28;343988;28;1062;-65
2022/01/24 01:26:55;;;;;;;10.68;7.22;;;;;;;2.50;75.87;101240.94;340954;29;1085;-65
2022/01/24 01:27:03;;;;;;;10.85;7.28;;;;;;;2.46;75.77;101239.13;343872;28;1127;-66
2022/01/24 01:27:14;;;;;;;10.50;7.00;;;;;;;2.52;75.82;101244.44;343295;28;1342;-66
2022/01/24 01:27:35;;;;;;;10.10;6.88;;;;;;;2.48;75.54;101238.34;343821;28;1026;-66
2022/01/24 01:27:49;;;;;;;9.43;6.75;;;;;;;2.55;75.21;101240.22;343578;28;1063;-66
2022/01/24 01:28:02;;;;;;;8.85;6.60;;;;;;;2.58;75.17;101239.44;343537;28;1036;-66
2022/01/24 01:28:15;;;;;;;8.60;6.35;;;;;;;2.59;75.51;101238.59;344766;28;966;-66
2022/01/24 01:28:29;;;;;;;9.68;6.70;;;;;;;2.61;75.61;101244.66;345032;28;1268;-66
2022/01/24 01:28:44;;;;;;;10.93;6.90;;;;;;;2.64;75.05;101244.72;345054;28;1067;-65
2022/01/24 01:29:15;;;;;;;10.43;7.10;;;;;;;2.66;75.29;101243.06;345174;28;1152;-66
2022/01/24 01:29:44;;;;;;;9.60;6.82;;;;;;;2.65;74.89;101237.91;344423;28;1056;-65
2022/01/24 01:30:08;;;;;;;10.60;7.47;;;;;;;2.65;75.01;101241.31;344004;28;1300;-66
2022/01/24 01:30:25;;;;;;;10.23;6.93;;;;;;;2.61;74.64;101239.50;344031;28;1040;-66
2022/01/24 01:30:42;;;;;;;10.35;6.97;;;;;;;2.63;74.95;101237.84;343937;28;1226;-65
2022/01/24 01:30:59;;;;;;;11.00;7.65;;;;;;;2.64;75.12;101239.59;343644;28;1144;-65
2022/01/24 01:31:21;;;;;;;10.82;7.65;;;;;;;2.67;75.00;101239.66;343598;28;1068;-66
2022/01/24 01:32:47;;;;;;;10.20;6.78;;;;;;;2.64;75.54;101242.16;339361;29;1050;-66
2022/01/24 01:33:03;;;;;;;9.65;7.03;;;;;;;2.64;75.03;101239.59;343666;28;1143;-66
2022/01/24 01:33:58;;;;;;;11.43;7.38;;;;;;;2.58;76.00;101240.31;343970;28;1113;-66
2022/01/24 01:35:53;;;;;;;12.55;7.40;;;;;;;2.60;75.59;101242.91;343987;28;1107;-66
2022/01/24 01:36:15;;;;;;;10.75;7.43;;;;;;;2.65;75.13;101240.47;343876;28;1055;-65
2022/01/24 01:52:40;;;;;;;10.75;7.10;;;;;;;2.82;74.35;101241.75;343887;28;1126;-66
2022/01/24 01:53:46;;;;;;;10.93;6.63;;;;;;;2.81;74.25;101237.44;343839;28;1065;-66
2022/01/24 01:54:30;;;;;;;8.82;6.95;;;;;;;2.83;74.63;101240.06;343802;28;1239;-67
2022/01/24 01:55:09;;;;;;;10.90;7.10;;;;;;;2.83;74.61;101237.47;343839;28;1175;-66
2022/01/24 01:55:49;;;;;;;10.35;7.00;;;;;;;2.78;74.23;101233.09;343612;28;1272;-67
2022/01/24 01:56:03;;;;;;;10.13;7.20;;;;;;;2.78;74.22;101237.38;343897;28;1043;-67
2022/01/24 01:56:15;;;;;;;10.32;7.18;;;;;;;2.79;74.62;101234.81;343472;28;1019;-66
2022/01/24 01:56:27;;;;;;;10.50;7.22;;;;;;;2.82;74.62;101238.28;343427;28;1094;-66
2022/01/24 01:56:40;;;;;;;10.90;7.10;;;;;;;2.81;74.59;101232.31;343939;28;1258;-67
2022/01/24 01:56:52;;;;;;;10.30;6.72;;;;;;;2.80;74.18;101228.88;343899;28;1643;-67
2022/01/24 01:57:11;;;;;;;9.75;6.80;;;;;;;2.80;74.98;101236.56;344060;28;1188;-67
2022/01/24 01:57:24;;;;;;;10.50;7.47;;;;;;;2.78;74.65;101233.09;344016;28;1198;-66
2022/01/24 01:57:37;;;;;;;10.75;7.30;;;;;;;2.79;74.63;101229.69;343856;28;1079;-66
2022/01/24 01:57:49;;;;;;;10.40;6.85;;;;;;;2.80;74.73;101228.88;343862;28;1178;-66
2022/01/24 01:58:02;;;;;;;9.20;6.53;;;;;;;2.79;74.71;101232.25;343683;28;1035;-67
2022/01/24 01:58:18;;;;;;;9.65;6.55;;;;;;;2.82;74.41;101238.28;343979;28;1127;-67
2022/01/24 01:58:31;;;;;;;9.35;6.50;;;;;;;2.86;74.49;101234.97;343766;28;1241;-68
2022/01/24 01:58:42;;;;;;;9.07;6.68;;;;;;;2.82;73.83;101228.03;343910;28;1358;-67
2022/01/24 01:58:54;;;;;;;10.15;6.80;;;;;;;2.80;74.22;101235.72;343913;28;1301;-65
2022/01/24 01:59:07;;;;;;;9.57;6.40;;;;;;;2.80;74.37;101231.44;343762;28;1573;-65
2022/01/24 01:59:19;;;;;;;8.52;6.10;;;;;;;2.80;74.07;101230.59;343874;28;1106;-66
2022/01/24 01:59:31;;;;;;;8.57;6.07;;;;;;;2.80;74.26;101228.88;344027;28;1094;-66
2022/01/24 01:59:44;;;;;;;9.95;6.97;;;;;;;2.83;74.17;101232.34;343469;28;1288;-66
2022/01/24 01:59:56;;;;;;;11.07;7.15;;;;;;;2.84;74.12;101236.63;343627;28;1107;-66
2022/01/24 02:00:09;;;;;;;10.98;6.85;;;;;;;2.83;74.02;101232.34;343683;28;1105;-66
2022/01/24 02:00:21;;;;;;;10.02;7.00;;;;;;;2.83;73.88;101232.34;343635;28;1067;-66
2022/01/24 02:00:36;;;;;;;10.35;7.28;;;;;;;2.83;74.11;101227.22;343384;28;933;-66
2022/01/24 02:00:55;;;;;;;10.50;7.35;;;;;;;2.86;73.81;101245.25;343566;28;1036;-66
2022/01/24 02:01:15;;;;;;;10.98;6.88;;;;;;;2.83;73.96;101229.78;343543;28;1170;-66
2022/01/24 02:01:28;;;;;;;9.73;6.72;;;;;;;2.83;74.17;101229.78;343295;28;1292;-66
2022/01/24 02:01:40;;;;;;;9.98;6.88;;;;;;;2.82;74.27;101231.50;342349;28;1215;-66
2022/01/24 02:01:52;;;;;;;11.30;7.13;;;;;;;2.82;74.19;101228.91;342096;28;1043;-66
2022/01/24 02:02:04;;;;;;;11.40;7.35;;;;;;;2.84;73.97;101231.50;342076;28;1043;-66
2022/01/24 02:02:17;;;;;;;9.93;7.22;;;;;;;2.87;74.10;101229.03;342176;28;1172;-66
2022/01/24 02:02:29;;;;;;;9.90;7.25;;;;;;;2.85;73.57;101228.97;342391;28;1096;-66
2022/01/24 02:02:41;;;;;;;10.20;6.80;;;;;;;2.84;74.01;101236.63;343224;28;1144;-66
2022/01/24 02:02:53;;;;;;;10.02;6.35;;;;;;;2.83;73.84;101232.34;343742;28;1027;-66